
<gpx xmlns="http://www.topografix.com/GPX/1/1" xmlns:gpxx="http://www.garmin.com/xmlschemas/GpxExtensions/v3" xmlns:xsi="http://www.w3.org/2001/XMLSchema-instance" version="1.1" creator="Adze - https://getadze.com/" xsi:schemaLocation="http://www.topografix.com/GPX/1/1 http://www.topografix.com/GPX/1/1/gpx.xsd http://www.garmin.com/xmlschemas/GpxExtensions/v3 http://www.garmin.com/xmlschemas/GpxExtensionsv3.xsd">
    <metadata>
        <name>Untitled Document</name>
        <link href="http://www.garmin.com"></link>
        <time>2018-03-06T04:25:15.195Z</time>
    </metadata>
    <wpt lon="101.546510" lat="12.770101">
        <ele>62.000000</ele>
        <name>Orchard Park</name>
        <cmt>22-SEP-06 15:39:41</cmt>
        <desc>22-SEP-06 15:39:41</desc>
        <sym>Building</sym>
        <extensions>
            <gpxx:WaypointExtension xmlns:gpxx="http://www.garmin.com/xmlschemas/GpxExtensions/v2" xmlns:xsi="http://www.w3.org/2001/XMLSchema-instance" xsi:schemaLocation="http://www.garmin.com/xmlschemas/GpxExtensions/v2 http://www.garmin.com/xmlschemas/GpxExtensions/v2/GpxExtensionsv2.xsd">
                <gpxx:DisplayMode>SymbolAndName</gpxx:DisplayMode>
            </gpxx:WaypointExtension>
        </extensions>
    </wpt>
    <wpt lon="101.506881" lat="12.830757">
        <name>September 2006 - Sunday water stop</name>
    </wpt>
    <trk>
        <name>September 2006 - Sunday</name>
        <extensions>
            <gpxx:TrackExtension>
                <gpxx:DisplayColor>DarkYellow</gpxx:DisplayColor>
            </gpxx:TrackExtension>
        </extensions>
        <trkseg>
            <trkpt lon="101.545325" lat="12.769966">
                <ele>81.849365</ele>
                <time>2006-09-24T03:21:31Z</time>
            </trkpt>
            <trkpt lon="101.545295" lat="12.770016">
                <ele>68.871582</ele>
                <time>2006-09-24T03:32:09Z</time>
            </trkpt>
            <trkpt lon="101.545282" lat="12.770076">
                <ele>68.871582</ele>
                <time>2006-09-24T03:32:18Z</time>
            </trkpt>
            <trkpt lon="101.545161" lat="12.770197">
                <ele>67.910278</ele>
                <time>2006-09-24T03:32:31Z</time>
            </trkpt>
            <trkpt lon="101.545158" lat="12.770496">
                <ele>69.832886</ele>
                <time>2006-09-24T03:32:46Z</time>
            </trkpt>
            <trkpt lon="101.545292" lat="12.770773">
                <ele>72.236206</ele>
                <time>2006-09-24T03:33:00Z</time>
            </trkpt>
            <trkpt lon="101.545673" lat="12.770803">
                <ele>72.716919</ele>
                <time>2006-09-24T03:33:18Z</time>
            </trkpt>
            <trkpt lon="101.546154" lat="12.770838">
                <ele>77.042847</ele>
                <time>2006-09-24T03:33:36Z</time>
            </trkpt>
            <trkpt lon="101.546256" lat="12.770865">
                <ele>78.484741</ele>
                <time>2006-09-24T03:33:41Z</time>
            </trkpt>
            <trkpt lon="101.546206" lat="12.771264">
                <ele>75.600830</ele>
                <time>2006-09-24T03:33:55Z</time>
            </trkpt>
            <trkpt lon="101.546169" lat="12.771352">
                <ele>75.600830</ele>
                <time>2006-09-24T03:33:57Z</time>
            </trkpt>
            <trkpt lon="101.545993" lat="12.771471">
                <ele>75.120239</ele>
                <time>2006-09-24T03:34:01Z</time>
            </trkpt>
            <trkpt lon="101.545505" lat="12.771931">
                <ele>73.197632</ele>
                <time>2006-09-24T03:34:17Z</time>
            </trkpt>
            <trkpt lon="101.545347" lat="12.772460">
                <ele>69.832886</ele>
                <time>2006-09-24T03:34:32Z</time>
            </trkpt>
            <trkpt lon="101.545555" lat="12.773059">
                <ele>65.987671</ele>
                <time>2006-09-24T03:34:44Z</time>
            </trkpt>
            <trkpt lon="101.546051" lat="12.774327">
                <ele>59.258423</ele>
                <time>2006-09-24T03:35:04Z</time>
            </trkpt>
            <trkpt lon="101.546484" lat="12.775426">
                <ele>53.971191</ele>
                <time>2006-09-24T03:35:23Z</time>
            </trkpt>
            <trkpt lon="101.546533" lat="12.775580">
                <ele>53.009766</ele>
                <time>2006-09-24T03:35:26Z</time>
            </trkpt>
            <trkpt lon="101.546436" lat="12.775772">
                <ele>53.490479</ele>
                <time>2006-09-24T03:35:32Z</time>
            </trkpt>
            <trkpt lon="101.545616" lat="12.775965">
                <ele>55.413086</ele>
                <time>2006-09-24T03:35:52Z</time>
            </trkpt>
            <trkpt lon="101.545559" lat="12.776148">
                <ele>55.893799</ele>
                <time>2006-09-24T03:35:57Z</time>
            </trkpt>
            <trkpt lon="101.545702" lat="12.776857">
                <ele>54.932373</ele>
                <time>2006-09-24T03:36:11Z</time>
            </trkpt>
            <trkpt lon="101.545859" lat="12.776955">
                <ele>53.009766</ele>
                <time>2006-09-24T03:36:17Z</time>
            </trkpt>
            <trkpt lon="101.546641" lat="12.776724">
                <ele>53.490479</ele>
                <time>2006-09-24T03:36:35Z</time>
            </trkpt>
            <trkpt lon="101.547201" lat="12.776514">
                <ele>52.048584</ele>
                <time>2006-09-24T03:36:47Z</time>
            </trkpt>
            <trkpt lon="101.547405" lat="12.776487">
                <ele>52.048584</ele>
                <time>2006-09-24T03:36:51Z</time>
            </trkpt>
            <trkpt lon="101.547739" lat="12.776492">
                <ele>52.529175</ele>
                <time>2006-09-24T03:36:59Z</time>
            </trkpt>
            <trkpt lon="101.548185" lat="12.776528">
                <ele>52.048584</ele>
                <time>2006-09-24T03:37:09Z</time>
            </trkpt>
            <trkpt lon="101.548328" lat="12.776565">
                <ele>52.048584</ele>
                <time>2006-09-24T03:37:12Z</time>
            </trkpt>
            <trkpt lon="101.548602" lat="12.776866">
                <ele>50.125977</ele>
                <time>2006-09-24T03:37:20Z</time>
            </trkpt>
            <trkpt lon="101.548642" lat="12.777037">
                <ele>50.606567</ele>
                <time>2006-09-24T03:37:24Z</time>
            </trkpt>
            <trkpt lon="101.548684" lat="12.777208">
                <ele>49.645264</ele>
                <time>2006-09-24T03:37:29Z</time>
            </trkpt>
            <trkpt lon="101.548831" lat="12.777475">
                <ele>47.722534</ele>
                <time>2006-09-24T03:37:36Z</time>
            </trkpt>
            <trkpt lon="101.548729" lat="12.777700">
                <ele>45.799927</ele>
                <time>2006-09-24T03:37:45Z</time>
            </trkpt>
            <trkpt lon="101.548236" lat="12.777677">
                <ele>45.799927</ele>
                <time>2006-09-24T03:38:00Z</time>
            </trkpt>
            <trkpt lon="101.548001" lat="12.777886">
                <ele>46.761230</ele>
                <time>2006-09-24T03:38:12Z</time>
            </trkpt>
            <trkpt lon="101.547995" lat="12.778393">
                <ele>47.241821</ele>
                <time>2006-09-24T03:38:28Z</time>
            </trkpt>
            <trkpt lon="101.547967" lat="12.778585">
                <ele>47.241821</ele>
                <time>2006-09-24T03:38:37Z</time>
            </trkpt>
            <trkpt lon="101.547929" lat="12.778592">
                <ele>47.241821</ele>
                <time>2006-09-24T03:38:42Z</time>
            </trkpt>
            <trkpt lon="101.547826" lat="12.778512">
                <ele>47.722534</ele>
                <time>2006-09-24T03:38:59Z</time>
            </trkpt>
            <trkpt lon="101.547645" lat="12.778484">
                <ele>45.319214</ele>
                <time>2006-09-24T03:39:11Z</time>
            </trkpt>
            <trkpt lon="101.547456" lat="12.778303">
                <ele>45.319214</ele>
                <time>2006-09-24T03:39:21Z</time>
            </trkpt>
            <trkpt lon="101.547442" lat="12.778283">
                <ele>45.319214</ele>
                <time>2006-09-24T03:39:22Z</time>
            </trkpt>
            <trkpt lon="101.547303" lat="12.778073">
                <ele>46.280640</ele>
                <time>2006-09-24T03:39:35Z</time>
            </trkpt>
            <trkpt lon="101.547246" lat="12.778081">
                <ele>46.280640</ele>
                <time>2006-09-24T03:39:41Z</time>
            </trkpt>
            <trkpt lon="101.547060" lat="12.778202">
                <ele>44.358032</ele>
                <time>2006-09-24T03:39:56Z</time>
            </trkpt>
            <trkpt lon="101.546996" lat="12.778238">
                <ele>42.916016</ele>
                <time>2006-09-24T03:40:10Z</time>
            </trkpt>
            <trkpt lon="101.546939" lat="12.778263">
                <ele>42.916016</ele>
                <time>2006-09-24T03:40:21Z</time>
            </trkpt>
            <trkpt lon="101.546891" lat="12.778271">
                <ele>42.435425</ele>
                <time>2006-09-24T03:40:25Z</time>
            </trkpt>
            <trkpt lon="101.546857" lat="12.778298">
                <ele>42.435425</ele>
                <time>2006-09-24T03:40:39Z</time>
            </trkpt>
            <trkpt lon="101.546781" lat="12.778331">
                <ele>42.435425</ele>
                <time>2006-09-24T03:40:55Z</time>
            </trkpt>
            <trkpt lon="101.546769" lat="12.778313">
                <ele>42.916016</ele>
                <time>2006-09-24T03:41:00Z</time>
            </trkpt>
            <trkpt lon="101.546621" lat="12.778082">
                <ele>45.319214</ele>
                <time>2006-09-24T03:41:21Z</time>
            </trkpt>
            <trkpt lon="101.546544" lat="12.777974">
                <ele>46.280640</ele>
                <time>2006-09-24T03:41:30Z</time>
            </trkpt>
            <trkpt lon="101.546381" lat="12.778012">
                <ele>45.799927</ele>
                <time>2006-09-24T03:41:39Z</time>
            </trkpt>
            <trkpt lon="101.546033" lat="12.778068">
                <ele>44.838623</ele>
                <time>2006-09-24T03:41:54Z</time>
            </trkpt>
            <trkpt lon="101.545655" lat="12.778318">
                <ele>42.916016</ele>
                <time>2006-09-24T03:42:11Z</time>
            </trkpt>
            <trkpt lon="101.545407" lat="12.778593">
                <ele>43.396606</ele>
                <time>2006-09-24T03:42:23Z</time>
            </trkpt>
            <trkpt lon="101.545430" lat="12.778918">
                <ele>43.877319</ele>
                <time>2006-09-24T03:42:35Z</time>
            </trkpt>
            <trkpt lon="101.545419" lat="12.778992">
                <ele>43.396606</ele>
                <time>2006-09-24T03:42:38Z</time>
            </trkpt>
            <trkpt lon="101.545650" lat="12.779217">
                <ele>41.954712</ele>
                <time>2006-09-24T03:42:46Z</time>
            </trkpt>
            <trkpt lon="101.545808" lat="12.779343">
                <ele>41.954712</ele>
                <time>2006-09-24T03:42:50Z</time>
            </trkpt>
            <trkpt lon="101.545923" lat="12.779510">
                <ele>40.993408</ele>
                <time>2006-09-24T03:42:54Z</time>
            </trkpt>
            <trkpt lon="101.545970" lat="12.779652">
                <ele>40.512817</ele>
                <time>2006-09-24T03:42:57Z</time>
            </trkpt>
            <trkpt lon="101.545935" lat="12.780266">
                <ele>40.032104</ele>
                <time>2006-09-24T03:43:11Z</time>
            </trkpt>
            <trkpt lon="101.545861" lat="12.780878">
                <ele>40.032104</ele>
                <time>2006-09-24T03:43:28Z</time>
            </trkpt>
            <trkpt lon="101.545781" lat="12.781342">
                <ele>41.473999</ele>
                <time>2006-09-24T03:43:42Z</time>
            </trkpt>
            <trkpt lon="101.545403" lat="12.781294">
                <ele>42.435425</ele>
                <time>2006-09-24T03:43:56Z</time>
            </trkpt>
            <trkpt lon="101.544766" lat="12.781158">
                <ele>45.319214</ele>
                <time>2006-09-24T03:44:16Z</time>
            </trkpt>
            <trkpt lon="101.543934" lat="12.780925">
                <ele>46.761230</ele>
                <time>2006-09-24T03:44:38Z</time>
            </trkpt>
            <trkpt lon="101.543023" lat="12.780663">
                <ele>49.164551</ele>
                <time>2006-09-24T03:44:59Z</time>
            </trkpt>
            <trkpt lon="101.542246" lat="12.780454">
                <ele>47.241821</ele>
                <time>2006-09-24T03:45:15Z</time>
            </trkpt>
            <trkpt lon="101.541797" lat="12.780340">
                <ele>46.761230</ele>
                <time>2006-09-24T03:45:23Z</time>
            </trkpt>
            <trkpt lon="101.541691" lat="12.780301">
                <ele>46.761230</ele>
                <time>2006-09-24T03:45:25Z</time>
            </trkpt>
            <trkpt lon="101.540909" lat="12.780061">
                <ele>48.203369</ele>
                <time>2006-09-24T03:45:40Z</time>
            </trkpt>
            <trkpt lon="101.540270" lat="12.779775">
                <ele>50.125977</ele>
                <time>2006-09-24T03:45:57Z</time>
            </trkpt>
            <trkpt lon="101.539801" lat="12.779512">
                <ele>51.567871</ele>
                <time>2006-09-24T03:46:17Z</time>
            </trkpt>
            <trkpt lon="101.539340" lat="12.779245">
                <ele>53.009766</ele>
                <time>2006-09-24T03:46:35Z</time>
            </trkpt>
            <trkpt lon="101.538715" lat="12.778843">
                <ele>54.451782</ele>
                <time>2006-09-24T03:46:55Z</time>
            </trkpt>
            <trkpt lon="101.538117" lat="12.778484">
                <ele>56.374512</ele>
                <time>2006-09-24T03:47:13Z</time>
            </trkpt>
            <trkpt lon="101.537936" lat="12.778432">
                <ele>57.816528</ele>
                <time>2006-09-24T03:47:17Z</time>
            </trkpt>
            <trkpt lon="101.537789" lat="12.778420">
                <ele>58.777710</ele>
                <time>2006-09-24T03:47:23Z</time>
            </trkpt>
            <trkpt lon="101.537290" lat="12.778293">
                <ele>62.142334</ele>
                <time>2006-09-24T03:47:43Z</time>
            </trkpt>
            <trkpt lon="101.536772" lat="12.778226">
                <ele>62.622925</ele>
                <time>2006-09-24T03:48:02Z</time>
            </trkpt>
            <trkpt lon="101.536223" lat="12.778183">
                <ele>64.065063</ele>
                <time>2006-09-24T03:48:21Z</time>
            </trkpt>
            <trkpt lon="101.534556" lat="12.777557">
                <ele>65.507080</ele>
                <time>2006-09-24T03:49:16Z</time>
            </trkpt>
            <trkpt lon="101.533791" lat="12.777351">
                <ele>68.390869</ele>
                <time>2006-09-24T03:49:33Z</time>
            </trkpt>
            <trkpt lon="101.533112" lat="12.777528">
                <ele>69.352295</ele>
                <time>2006-09-24T03:49:50Z</time>
            </trkpt>
            <trkpt lon="101.532687" lat="12.777665">
                <ele>69.832886</ele>
                <time>2006-09-24T03:50:05Z</time>
            </trkpt>
            <trkpt lon="101.532132" lat="12.777879">
                <ele>69.352295</ele>
                <time>2006-09-24T03:50:21Z</time>
            </trkpt>
            <trkpt lon="101.531620" lat="12.778058">
                <ele>68.871582</ele>
                <time>2006-09-24T03:50:33Z</time>
            </trkpt>
            <trkpt lon="101.531590" lat="12.778143">
                <ele>68.871582</ele>
                <time>2006-09-24T03:50:37Z</time>
            </trkpt>
            <trkpt lon="101.530439" lat="12.778668">
                <ele>71.274902</ele>
                <time>2006-09-24T03:51:06Z</time>
            </trkpt>
            <trkpt lon="101.529707" lat="12.778928">
                <ele>69.832886</ele>
                <time>2006-09-24T03:51:19Z</time>
            </trkpt>
            <trkpt lon="101.529570" lat="12.778943">
                <ele>69.832886</ele>
                <time>2006-09-24T03:51:24Z</time>
            </trkpt>
            <trkpt lon="101.529196" lat="12.778956">
                <ele>70.794189</ele>
                <time>2006-09-24T03:51:42Z</time>
            </trkpt>
            <trkpt lon="101.529131" lat="12.778960">
                <ele>71.274902</ele>
                <time>2006-09-24T03:51:45Z</time>
            </trkpt>
            <trkpt lon="101.529030" lat="12.778881">
                <ele>72.716919</ele>
                <time>2006-09-24T03:51:51Z</time>
            </trkpt>
            <trkpt lon="101.528792" lat="12.778257">
                <ele>72.236206</ele>
                <time>2006-09-24T03:52:03Z</time>
            </trkpt>
            <trkpt lon="101.528699" lat="12.778215">
                <ele>71.755493</ele>
                <time>2006-09-24T03:52:07Z</time>
            </trkpt>
            <trkpt lon="101.528430" lat="12.778338">
                <ele>71.274902</ele>
                <time>2006-09-24T03:52:14Z</time>
            </trkpt>
            <trkpt lon="101.527732" lat="12.778673">
                <ele>71.274902</ele>
                <time>2006-09-24T03:52:33Z</time>
            </trkpt>
            <trkpt lon="101.527546" lat="12.778786">
                <ele>70.313477</ele>
                <time>2006-09-24T03:52:40Z</time>
            </trkpt>
            <trkpt lon="101.527560" lat="12.778915">
                <ele>69.352295</ele>
                <time>2006-09-24T03:52:45Z</time>
            </trkpt>
            <trkpt lon="101.527612" lat="12.779058">
                <ele>70.313477</ele>
                <time>2006-09-24T03:52:50Z</time>
            </trkpt>
            <trkpt lon="101.527570" lat="12.779105">
                <ele>70.794189</ele>
                <time>2006-09-24T03:52:54Z</time>
            </trkpt>
            <trkpt lon="101.527513" lat="12.779067">
                <ele>71.274902</ele>
                <time>2006-09-24T03:52:58Z</time>
            </trkpt>
            <trkpt lon="101.527071" lat="12.779302">
                <ele>70.313477</ele>
                <time>2006-09-24T03:53:34Z</time>
            </trkpt>
            <trkpt lon="101.527013" lat="12.779530">
                <ele>75.120239</ele>
                <time>2006-09-24T03:54:03Z</time>
            </trkpt>
            <trkpt lon="101.527046" lat="12.779564">
                <ele>78.004028</ele>
                <time>2006-09-24T03:54:11Z</time>
            </trkpt>
            <trkpt lon="101.527140" lat="12.779743">
                <ele>81.849365</ele>
                <time>2006-09-24T03:54:30Z</time>
            </trkpt>
            <trkpt lon="101.527075" lat="12.779978">
                <ele>84.252686</ele>
                <time>2006-09-24T03:55:18Z</time>
            </trkpt>
            <trkpt lon="101.527100" lat="12.780121">
                <ele>83.771973</ele>
                <time>2006-09-24T03:55:32Z</time>
            </trkpt>
            <trkpt lon="101.527146" lat="12.780222">
                <ele>82.810791</ele>
                <time>2006-09-24T03:55:40Z</time>
            </trkpt>
            <trkpt lon="101.527114" lat="12.780264">
                <ele>83.771973</ele>
                <time>2006-09-24T03:55:44Z</time>
            </trkpt>
            <trkpt lon="101.527005" lat="12.780396">
                <ele>83.771973</ele>
                <time>2006-09-24T03:55:59Z</time>
            </trkpt>
            <trkpt lon="101.526870" lat="12.780587">
                <ele>87.136597</ele>
                <time>2006-09-24T03:56:16Z</time>
            </trkpt>
            <trkpt lon="101.526662" lat="12.780745">
                <ele>90.501343</ele>
                <time>2006-09-24T03:56:32Z</time>
            </trkpt>
            <trkpt lon="101.526041" lat="12.780431">
                <ele>83.771973</ele>
                <time>2006-09-24T03:56:57Z</time>
            </trkpt>
            <trkpt lon="101.525593" lat="12.780161">
                <ele>78.965454</ele>
                <time>2006-09-24T03:57:13Z</time>
            </trkpt>
            <trkpt lon="101.525219" lat="12.779922">
                <ele>78.484741</ele>
                <time>2006-09-24T03:57:30Z</time>
            </trkpt>
            <trkpt lon="101.525113" lat="12.779899">
                <ele>78.004028</ele>
                <time>2006-09-24T03:57:38Z</time>
            </trkpt>
            <trkpt lon="101.525104" lat="12.780181">
                <ele>83.771973</ele>
                <time>2006-09-24T03:57:58Z</time>
            </trkpt>
            <trkpt lon="101.525136" lat="12.780529">
                <ele>83.291382</ele>
                <time>2006-09-24T03:58:18Z</time>
            </trkpt>
            <trkpt lon="101.525268" lat="12.780802">
                <ele>90.501343</ele>
                <time>2006-09-24T03:58:34Z</time>
            </trkpt>
            <trkpt lon="101.525271" lat="12.780933">
                <ele>89.059326</ele>
                <time>2006-09-24T03:58:42Z</time>
            </trkpt>
            <trkpt lon="101.525182" lat="12.781205">
                <ele>88.578735</ele>
                <time>2006-09-24T03:59:04Z</time>
            </trkpt>
            <trkpt lon="101.525146" lat="12.781233">
                <ele>88.578735</ele>
                <time>2006-09-24T03:59:08Z</time>
            </trkpt>
            <trkpt lon="101.524852" lat="12.781381">
                <ele>91.462524</ele>
                <time>2006-09-24T03:59:28Z</time>
            </trkpt>
            <trkpt lon="101.524477" lat="12.781424">
                <ele>91.943237</ele>
                <time>2006-09-24T03:59:44Z</time>
            </trkpt>
            <trkpt lon="101.524182" lat="12.781555">
                <ele>97.230469</ele>
                <time>2006-09-24T03:59:59Z</time>
            </trkpt>
            <trkpt lon="101.523888" lat="12.781680">
                <ele>96.749878</ele>
                <time>2006-09-24T04:00:15Z</time>
            </trkpt>
            <trkpt lon="101.523555" lat="12.781709">
                <ele>98.191895</ele>
                <time>2006-09-24T04:00:36Z</time>
            </trkpt>
            <trkpt lon="101.523253" lat="12.781691">
                <ele>97.711182</ele>
                <time>2006-09-24T04:00:55Z</time>
            </trkpt>
            <trkpt lon="101.523124" lat="12.781723">
                <ele>100.114502</ele>
                <time>2006-09-24T04:01:10Z</time>
            </trkpt>
            <trkpt lon="101.522956" lat="12.781812">
                <ele>98.191895</ele>
                <time>2006-09-24T04:01:35Z</time>
            </trkpt>
            <trkpt lon="101.522896" lat="12.781806">
                <ele>98.191895</ele>
                <time>2006-09-24T04:01:41Z</time>
            </trkpt>
            <trkpt lon="101.522813" lat="12.781800">
                <ele>97.711182</ele>
                <time>2006-09-24T04:01:49Z</time>
            </trkpt>
            <trkpt lon="101.522663" lat="12.781859">
                <ele>101.075684</ele>
                <time>2006-09-24T04:02:06Z</time>
            </trkpt>
            <trkpt lon="101.522632" lat="12.781903">
                <ele>101.075684</ele>
                <time>2006-09-24T04:02:19Z</time>
            </trkpt>
            <trkpt lon="101.522631" lat="12.781909">
                <ele>101.075684</ele>
                <time>2006-09-24T04:02:25Z</time>
            </trkpt>
            <trkpt lon="101.522661" lat="12.781958">
                <ele>101.075684</ele>
                <time>2006-09-24T04:02:29Z</time>
            </trkpt>
            <trkpt lon="101.522846" lat="12.782315">
                <ele>99.153076</ele>
                <time>2006-09-24T04:02:48Z</time>
            </trkpt>
            <trkpt lon="101.522816" lat="12.782743">
                <ele>97.711182</ele>
                <time>2006-09-24T04:03:02Z</time>
            </trkpt>
            <trkpt lon="101.522328" lat="12.784016">
                <ele>98.672485</ele>
                <time>2006-09-24T04:03:34Z</time>
            </trkpt>
            <trkpt lon="101.522278" lat="12.784172">
                <ele>97.711182</ele>
                <time>2006-09-24T04:03:37Z</time>
            </trkpt>
            <trkpt lon="101.522216" lat="12.784553">
                <ele>97.230469</ele>
                <time>2006-09-24T04:03:44Z</time>
            </trkpt>
            <trkpt lon="101.522169" lat="12.784626">
                <ele>97.230469</ele>
                <time>2006-09-24T04:03:46Z</time>
            </trkpt>
            <trkpt lon="101.522182" lat="12.785106">
                <ele>97.711182</ele>
                <time>2006-09-24T04:03:57Z</time>
            </trkpt>
            <trkpt lon="101.522339" lat="12.785552">
                <ele>96.269287</ele>
                <time>2006-09-24T04:04:09Z</time>
            </trkpt>
            <trkpt lon="101.522564" lat="12.785610">
                <ele>95.307739</ele>
                <time>2006-09-24T04:04:14Z</time>
            </trkpt>
            <trkpt lon="101.522834" lat="12.787904">
                <ele>90.981934</ele>
                <time>2006-09-24T04:04:57Z</time>
            </trkpt>
            <trkpt lon="101.522905" lat="12.789037">
                <ele>88.578735</ele>
                <time>2006-09-24T04:05:23Z</time>
            </trkpt>
            <trkpt lon="101.523093" lat="12.790000">
                <ele>84.252686</ele>
                <time>2006-09-24T04:05:28Z</time>
            </trkpt>
            <trkpt lon="101.523446" lat="12.790508">
                <ele>72.716919</ele>
                <time>2006-09-24T04:05:42Z</time>
            </trkpt>
            <trkpt lon="101.523497" lat="12.790685">
                <ele>70.313477</ele>
                <time>2006-09-24T04:05:46Z</time>
            </trkpt>
            <trkpt lon="101.523633" lat="12.791590">
                <ele>60.700317</ele>
                <time>2006-09-24T04:06:06Z</time>
            </trkpt>
            <trkpt lon="101.523790" lat="12.792459">
                <ele>55.893799</ele>
                <time>2006-09-24T04:06:28Z</time>
            </trkpt>
            <trkpt lon="101.523850" lat="12.792571">
                <ele>54.932373</ele>
                <time>2006-09-24T04:06:31Z</time>
            </trkpt>
            <trkpt lon="101.523916" lat="12.792637">
                <ele>54.451782</ele>
                <time>2006-09-24T04:06:33Z</time>
            </trkpt>
            <trkpt lon="101.523990" lat="12.792696">
                <ele>53.971191</ele>
                <time>2006-09-24T04:06:35Z</time>
            </trkpt>
            <trkpt lon="101.524790" lat="12.793114">
                <ele>53.490479</ele>
                <time>2006-09-24T04:06:55Z</time>
            </trkpt>
            <trkpt lon="101.525516" lat="12.793595">
                <ele>54.451782</ele>
                <time>2006-09-24T04:07:13Z</time>
            </trkpt>
            <trkpt lon="101.525604" lat="12.793677">
                <ele>53.971191</ele>
                <time>2006-09-24T04:07:15Z</time>
            </trkpt>
            <trkpt lon="101.525693" lat="12.793882">
                <ele>53.009766</ele>
                <time>2006-09-24T04:07:19Z</time>
            </trkpt>
            <trkpt lon="101.525706" lat="12.793979">
                <ele>52.048584</ele>
                <time>2006-09-24T04:07:21Z</time>
            </trkpt>
            <trkpt lon="101.525686" lat="12.794101">
                <ele>51.567871</ele>
                <time>2006-09-24T04:07:24Z</time>
            </trkpt>
            <trkpt lon="101.525315" lat="12.794519">
                <ele>53.490479</ele>
                <time>2006-09-24T04:07:39Z</time>
            </trkpt>
            <trkpt lon="101.524857" lat="12.794723">
                <ele>52.529175</ele>
                <time>2006-09-24T04:07:54Z</time>
            </trkpt>
            <trkpt lon="101.524159" lat="12.794796">
                <ele>53.971191</ele>
                <time>2006-09-24T04:08:13Z</time>
            </trkpt>
            <trkpt lon="101.523560" lat="12.794845">
                <ele>53.971191</ele>
                <time>2006-09-24T04:08:27Z</time>
            </trkpt>
            <trkpt lon="101.522766" lat="12.794777">
                <ele>54.932373</ele>
                <time>2006-09-24T04:08:47Z</time>
            </trkpt>
            <trkpt lon="101.522345" lat="12.794764">
                <ele>53.490479</ele>
                <time>2006-09-24T04:09:02Z</time>
            </trkpt>
            <trkpt lon="101.522252" lat="12.794799">
                <ele>53.971191</ele>
                <time>2006-09-24T04:09:05Z</time>
            </trkpt>
            <trkpt lon="101.522182" lat="12.794982">
                <ele>55.893799</ele>
                <time>2006-09-24T04:09:13Z</time>
            </trkpt>
            <trkpt lon="101.521941" lat="12.795451">
                <ele>60.219727</ele>
                <time>2006-09-24T04:09:31Z</time>
            </trkpt>
            <trkpt lon="101.521670" lat="12.796019">
                <ele>60.700317</ele>
                <time>2006-09-24T04:09:47Z</time>
            </trkpt>
            <trkpt lon="101.521424" lat="12.796471">
                <ele>61.661743</ele>
                <time>2006-09-24T04:10:01Z</time>
            </trkpt>
            <trkpt lon="101.521242" lat="12.796701">
                <ele>59.739136</ele>
                <time>2006-09-24T04:10:09Z</time>
            </trkpt>
            <trkpt lon="101.521167" lat="12.796840">
                <ele>58.777710</ele>
                <time>2006-09-24T04:10:12Z</time>
            </trkpt>
            <trkpt lon="101.521111" lat="12.797015">
                <ele>57.816528</ele>
                <time>2006-09-24T04:10:16Z</time>
            </trkpt>
            <trkpt lon="101.521064" lat="12.797284">
                <ele>60.219727</ele>
                <time>2006-09-24T04:10:29Z</time>
            </trkpt>
            <trkpt lon="101.521136" lat="12.797612">
                <ele>63.584351</ele>
                <time>2006-09-24T04:10:49Z</time>
            </trkpt>
            <trkpt lon="101.521197" lat="12.797961">
                <ele>64.065063</ele>
                <time>2006-09-24T04:11:04Z</time>
            </trkpt>
            <trkpt lon="101.521326" lat="12.798415">
                <ele>65.026367</ele>
                <time>2006-09-24T04:11:22Z</time>
            </trkpt>
            <trkpt lon="101.521696" lat="12.798411">
                <ele>63.103638</ele>
                <time>2006-09-24T04:11:39Z</time>
            </trkpt>
            <trkpt lon="101.522022" lat="12.798165">
                <ele>67.910278</ele>
                <time>2006-09-24T04:11:56Z</time>
            </trkpt>
            <trkpt lon="101.522420" lat="12.797944">
                <ele>70.794189</ele>
                <time>2006-09-24T04:12:15Z</time>
            </trkpt>
            <trkpt lon="101.523041" lat="12.797872">
                <ele>73.197632</ele>
                <time>2006-09-24T04:12:32Z</time>
            </trkpt>
            <trkpt lon="101.523826" lat="12.798123">
                <ele>76.081421</ele>
                <time>2006-09-24T04:12:51Z</time>
            </trkpt>
            <trkpt lon="101.525846" lat="12.798746">
                <ele>74.639526</ele>
                <time>2006-09-24T04:13:31Z</time>
            </trkpt>
            <trkpt lon="101.526805" lat="12.799250">
                <ele>76.562134</ele>
                <time>2006-09-24T04:13:51Z</time>
            </trkpt>
            <trkpt lon="101.528464" lat="12.800202">
                <ele>72.236206</ele>
                <time>2006-09-24T04:14:31Z</time>
            </trkpt>
            <trkpt lon="101.528969" lat="12.800552">
                <ele>69.832886</ele>
                <time>2006-09-24T04:14:47Z</time>
            </trkpt>
            <trkpt lon="101.530191" lat="12.801186">
                <ele>69.832886</ele>
                <time>2006-09-24T04:15:18Z</time>
            </trkpt>
            <trkpt lon="101.530895" lat="12.801384">
                <ele>69.832886</ele>
                <time>2006-09-24T04:15:33Z</time>
            </trkpt>
            <trkpt lon="101.531672" lat="12.801827">
                <ele>66.468262</ele>
                <time>2006-09-24T04:15:51Z</time>
            </trkpt>
            <trkpt lon="101.531663" lat="12.801983">
                <ele>68.390869</ele>
                <time>2006-09-24T04:15:58Z</time>
            </trkpt>
            <trkpt lon="101.531442" lat="12.802398">
                <ele>71.755493</ele>
                <time>2006-09-24T04:16:16Z</time>
            </trkpt>
            <trkpt lon="101.531308" lat="12.802673">
                <ele>77.042847</ele>
                <time>2006-09-24T04:16:34Z</time>
            </trkpt>
            <trkpt lon="101.530971" lat="12.803111">
                <ele>75.600830</ele>
                <time>2006-09-24T04:17:01Z</time>
            </trkpt>
            <trkpt lon="101.531012" lat="12.803140">
                <ele>76.562134</ele>
                <time>2006-09-24T04:17:04Z</time>
            </trkpt>
            <trkpt lon="101.531845" lat="12.803690">
                <ele>74.158813</ele>
                <time>2006-09-24T04:17:34Z</time>
            </trkpt>
            <trkpt lon="101.531850" lat="12.803786">
                <ele>71.274902</ele>
                <time>2006-09-24T04:17:38Z</time>
            </trkpt>
            <trkpt lon="101.531466" lat="12.804357">
                <ele>64.545654</ele>
                <time>2006-09-24T04:17:52Z</time>
            </trkpt>
            <trkpt lon="101.530927" lat="12.805081">
                <ele>61.181030</ele>
                <time>2006-09-24T04:18:10Z</time>
            </trkpt>
            <trkpt lon="101.530639" lat="12.805516">
                <ele>61.181030</ele>
                <time>2006-09-24T04:18:27Z</time>
            </trkpt>
            <trkpt lon="101.530363" lat="12.805926">
                <ele>62.622925</ele>
                <time>2006-09-24T04:18:46Z</time>
            </trkpt>
            <trkpt lon="101.530092" lat="12.806323">
                <ele>65.987671</ele>
                <time>2006-09-24T04:19:07Z</time>
            </trkpt>
            <trkpt lon="101.529820" lat="12.806716">
                <ele>69.352295</ele>
                <time>2006-09-24T04:19:28Z</time>
            </trkpt>
            <trkpt lon="101.529612" lat="12.807019">
                <ele>72.716919</ele>
                <time>2006-09-24T04:19:46Z</time>
            </trkpt>
            <trkpt lon="101.529418" lat="12.807314">
                <ele>74.639526</ele>
                <time>2006-09-24T04:20:01Z</time>
            </trkpt>
            <trkpt lon="101.529114" lat="12.807869">
                <ele>70.794189</ele>
                <time>2006-09-24T04:20:16Z</time>
            </trkpt>
            <trkpt lon="101.528836" lat="12.808369">
                <ele>71.755493</ele>
                <time>2006-09-24T04:20:30Z</time>
            </trkpt>
            <trkpt lon="101.528571" lat="12.808839">
                <ele>74.158813</ele>
                <time>2006-09-24T04:20:48Z</time>
            </trkpt>
            <trkpt lon="101.528288" lat="12.809297">
                <ele>74.639526</ele>
                <time>2006-09-24T04:21:04Z</time>
            </trkpt>
            <trkpt lon="101.528011" lat="12.809511">
                <ele>73.197632</ele>
                <time>2006-09-24T04:21:09Z</time>
            </trkpt>
            <trkpt lon="101.526813" lat="12.810120">
                <ele>65.026367</ele>
                <time>2006-09-24T04:21:22Z</time>
            </trkpt>
            <trkpt lon="101.526519" lat="12.810291">
                <ele>64.545654</ele>
                <time>2006-09-24T04:21:26Z</time>
            </trkpt>
            <trkpt lon="101.526078" lat="12.810786">
                <ele>66.468262</ele>
                <time>2006-09-24T04:21:38Z</time>
            </trkpt>
            <trkpt lon="101.525959" lat="12.811206">
                <ele>66.948975</ele>
                <time>2006-09-24T04:21:53Z</time>
            </trkpt>
            <trkpt lon="101.525766" lat="12.811662">
                <ele>66.948975</ele>
                <time>2006-09-24T04:22:11Z</time>
            </trkpt>
            <trkpt lon="101.525701" lat="12.811740">
                <ele>66.948975</ele>
                <time>2006-09-24T04:22:15Z</time>
            </trkpt>
            <trkpt lon="101.525699" lat="12.811749">
                <ele>67.429688</ele>
                <time>2006-09-24T04:22:30Z</time>
            </trkpt>
            <trkpt lon="101.525700" lat="12.811748">
                <ele>69.352295</ele>
                <time>2006-09-24T04:22:46Z</time>
            </trkpt>
            <trkpt lon="101.525701" lat="12.811740">
                <ele>74.158813</ele>
                <time>2006-09-24T04:40:06Z</time>
            </trkpt>
            <trkpt lon="101.525772" lat="12.811723">
                <ele>72.716919</ele>
                <time>2006-09-24T04:40:12Z</time>
            </trkpt>
            <trkpt lon="101.525876" lat="12.811903">
                <ele>67.429688</ele>
                <time>2006-09-24T04:40:27Z</time>
            </trkpt>
            <trkpt lon="101.526094" lat="12.812321">
                <ele>60.219727</ele>
                <time>2006-09-24T04:40:43Z</time>
            </trkpt>
            <trkpt lon="101.526196" lat="12.812507">
                <ele>57.335815</ele>
                <time>2006-09-24T04:40:48Z</time>
            </trkpt>
            <trkpt lon="101.526456" lat="12.813054">
                <ele>53.009766</ele>
                <time>2006-09-24T04:41:02Z</time>
            </trkpt>
            <trkpt lon="101.526481" lat="12.813096">
                <ele>53.009766</ele>
                <time>2006-09-24T04:41:04Z</time>
            </trkpt>
            <trkpt lon="101.526500" lat="12.813037">
                <ele>53.009766</ele>
                <time>2006-09-24T04:41:12Z</time>
            </trkpt>
            <trkpt lon="101.526483" lat="12.813026">
                <ele>53.009766</ele>
                <time>2006-09-24T04:41:13Z</time>
            </trkpt>
            <trkpt lon="101.526453" lat="12.812999">
                <ele>53.490479</ele>
                <time>2006-09-24T04:41:15Z</time>
            </trkpt>
            <trkpt lon="101.526318" lat="12.812673">
                <ele>53.490479</ele>
                <time>2006-09-24T04:41:31Z</time>
            </trkpt>
            <trkpt lon="101.526281" lat="12.812606">
                <ele>54.451782</ele>
                <time>2006-09-24T04:41:44Z</time>
            </trkpt>
            <trkpt lon="101.526237" lat="12.812621">
                <ele>54.932373</ele>
                <time>2006-09-24T04:41:52Z</time>
            </trkpt>
            <trkpt lon="101.526388" lat="12.812920">
                <ele>53.009766</ele>
                <time>2006-09-24T04:42:03Z</time>
            </trkpt>
            <trkpt lon="101.526408" lat="12.812938">
                <ele>52.529175</ele>
                <time>2006-09-24T04:42:04Z</time>
            </trkpt>
            <trkpt lon="101.526413" lat="12.812940">
                <ele>54.451782</ele>
                <time>2006-09-24T04:42:20Z</time>
            </trkpt>
            <trkpt lon="101.526587" lat="12.813298">
                <ele>53.490479</ele>
                <time>2006-09-24T04:42:32Z</time>
            </trkpt>
            <trkpt lon="101.526872" lat="12.813766">
                <ele>54.451782</ele>
                <time>2006-09-24T04:42:51Z</time>
            </trkpt>
            <trkpt lon="101.526896" lat="12.813792">
                <ele>54.451782</ele>
                <time>2006-09-24T04:43:02Z</time>
            </trkpt>
            <trkpt lon="101.527100" lat="12.814075">
                <ele>55.413086</ele>
                <time>2006-09-24T04:43:15Z</time>
            </trkpt>
            <trkpt lon="101.527379" lat="12.814465">
                <ele>57.816528</ele>
                <time>2006-09-24T04:43:33Z</time>
            </trkpt>
            <trkpt lon="101.527653" lat="12.814783">
                <ele>59.258423</ele>
                <time>2006-09-24T04:43:49Z</time>
            </trkpt>
            <trkpt lon="101.527971" lat="12.815226">
                <ele>60.219727</ele>
                <time>2006-09-24T04:44:05Z</time>
            </trkpt>
            <trkpt lon="101.528382" lat="12.815763">
                <ele>62.622925</ele>
                <time>2006-09-24T04:44:23Z</time>
            </trkpt>
            <trkpt lon="101.528745" lat="12.816023">
                <ele>66.948975</ele>
                <time>2006-09-24T04:44:40Z</time>
            </trkpt>
            <trkpt lon="101.529215" lat="12.816052">
                <ele>71.755493</ele>
                <time>2006-09-24T04:44:58Z</time>
            </trkpt>
            <trkpt lon="101.529339" lat="12.816056">
                <ele>70.794189</ele>
                <time>2006-09-24T04:45:01Z</time>
            </trkpt>
            <trkpt lon="101.529649" lat="12.816265">
                <ele>66.948975</ele>
                <time>2006-09-24T04:45:07Z</time>
            </trkpt>
            <trkpt lon="101.529904" lat="12.816564">
                <ele>62.622925</ele>
                <time>2006-09-24T04:45:12Z</time>
            </trkpt>
            <trkpt lon="101.529884" lat="12.816850">
                <ele>61.661743</ele>
                <time>2006-09-24T04:45:17Z</time>
            </trkpt>
            <trkpt lon="101.528888" lat="12.817565">
                <ele>62.622925</ele>
                <time>2006-09-24T04:45:37Z</time>
            </trkpt>
            <trkpt lon="101.528168" lat="12.818204">
                <ele>64.545654</ele>
                <time>2006-09-24T04:45:56Z</time>
            </trkpt>
            <trkpt lon="101.527545" lat="12.818827">
                <ele>67.910278</ele>
                <time>2006-09-24T04:46:18Z</time>
            </trkpt>
            <trkpt lon="101.527007" lat="12.819345">
                <ele>71.274902</ele>
                <time>2006-09-24T04:46:38Z</time>
            </trkpt>
            <trkpt lon="101.526439" lat="12.819806">
                <ele>67.910278</ele>
                <time>2006-09-24T04:46:54Z</time>
            </trkpt>
            <trkpt lon="101.525807" lat="12.820501">
                <ele>61.661743</ele>
                <time>2006-09-24T04:47:09Z</time>
            </trkpt>
            <trkpt lon="101.524784" lat="12.821806">
                <ele>54.451782</ele>
                <time>2006-09-24T04:47:29Z</time>
            </trkpt>
            <trkpt lon="101.523939" lat="12.822875">
                <ele>53.971191</ele>
                <time>2006-09-24T04:47:48Z</time>
            </trkpt>
            <trkpt lon="101.523225" lat="12.823723">
                <ele>45.319214</ele>
                <time>2006-09-24T04:48:03Z</time>
            </trkpt>
            <trkpt lon="101.522389" lat="12.824176">
                <ele>44.838623</ele>
                <time>2006-09-24T04:48:14Z</time>
            </trkpt>
            <trkpt lon="101.521487" lat="12.824528">
                <ele>46.761230</ele>
                <time>2006-09-24T04:48:29Z</time>
            </trkpt>
            <trkpt lon="101.520683" lat="12.824830">
                <ele>49.164551</ele>
                <time>2006-09-24T04:48:47Z</time>
            </trkpt>
            <trkpt lon="101.519881" lat="12.825112">
                <ele>50.606567</ele>
                <time>2006-09-24T04:49:07Z</time>
            </trkpt>
            <trkpt lon="101.518940" lat="12.825450">
                <ele>45.319214</ele>
                <time>2006-09-24T04:49:25Z</time>
            </trkpt>
            <trkpt lon="101.518033" lat="12.825746">
                <ele>43.396606</ele>
                <time>2006-09-24T04:49:38Z</time>
            </trkpt>
            <trkpt lon="101.517825" lat="12.825740">
                <ele>44.358032</ele>
                <time>2006-09-24T04:49:42Z</time>
            </trkpt>
            <trkpt lon="101.517632" lat="12.825720">
                <ele>44.358032</ele>
                <time>2006-09-24T04:49:46Z</time>
            </trkpt>
            <trkpt lon="101.517168" lat="12.825616">
                <ele>47.722534</ele>
                <time>2006-09-24T04:50:00Z</time>
            </trkpt>
            <trkpt lon="101.516636" lat="12.825502">
                <ele>48.683960</ele>
                <time>2006-09-24T04:50:18Z</time>
            </trkpt>
            <trkpt lon="101.516325" lat="12.825590">
                <ele>45.319214</ele>
                <time>2006-09-24T04:50:27Z</time>
            </trkpt>
            <trkpt lon="101.515662" lat="12.825775">
                <ele>43.877319</ele>
                <time>2006-09-24T04:50:39Z</time>
            </trkpt>
            <trkpt lon="101.515470" lat="12.825833">
                <ele>44.358032</ele>
                <time>2006-09-24T04:50:43Z</time>
            </trkpt>
            <trkpt lon="101.514953" lat="12.825995">
                <ele>46.761230</ele>
                <time>2006-09-24T04:50:58Z</time>
            </trkpt>
            <trkpt lon="101.514524" lat="12.826118">
                <ele>49.645264</ele>
                <time>2006-09-24T04:51:15Z</time>
            </trkpt>
            <trkpt lon="101.514126" lat="12.826244">
                <ele>53.971191</ele>
                <time>2006-09-24T04:51:34Z</time>
            </trkpt>
            <trkpt lon="101.513755" lat="12.826330">
                <ele>55.893799</ele>
                <time>2006-09-24T04:51:53Z</time>
            </trkpt>
            <trkpt lon="101.513449" lat="12.826419">
                <ele>56.855103</ele>
                <time>2006-09-24T04:52:10Z</time>
            </trkpt>
            <trkpt lon="101.512952" lat="12.826472">
                <ele>56.374512</ele>
                <time>2006-09-24T04:52:28Z</time>
            </trkpt>
            <trkpt lon="101.512856" lat="12.826517">
                <ele>54.932373</ele>
                <time>2006-09-24T04:52:31Z</time>
            </trkpt>
            <trkpt lon="101.512192" lat="12.826937">
                <ele>49.645264</ele>
                <time>2006-09-24T04:52:43Z</time>
            </trkpt>
            <trkpt lon="101.511706" lat="12.827304">
                <ele>51.087158</ele>
                <time>2006-09-24T04:52:56Z</time>
            </trkpt>
            <trkpt lon="101.511324" lat="12.827646">
                <ele>53.490479</ele>
                <time>2006-09-24T04:53:10Z</time>
            </trkpt>
            <trkpt lon="101.511184" lat="12.827760">
                <ele>54.451782</ele>
                <time>2006-09-24T04:53:19Z</time>
            </trkpt>
            <trkpt lon="101.510867" lat="12.827930">
                <ele>52.529175</ele>
                <time>2006-09-24T04:53:41Z</time>
            </trkpt>
            <trkpt lon="101.510680" lat="12.828140">
                <ele>55.893799</ele>
                <time>2006-09-24T04:54:00Z</time>
            </trkpt>
            <trkpt lon="101.510537" lat="12.828112">
                <ele>54.932373</ele>
                <time>2006-09-24T04:54:16Z</time>
            </trkpt>
            <trkpt lon="101.510419" lat="12.828198">
                <ele>53.971191</ele>
                <time>2006-09-24T04:54:20Z</time>
            </trkpt>
            <trkpt lon="101.508636" lat="12.828750">
                <ele>49.645264</ele>
                <time>2006-09-24T04:54:47Z</time>
            </trkpt>
            <trkpt lon="101.507824" lat="12.829002">
                <ele>46.761230</ele>
                <time>2006-09-24T04:55:05Z</time>
            </trkpt>
            <trkpt lon="101.507743" lat="12.829053">
                <ele>46.280640</ele>
                <time>2006-09-24T04:55:18Z</time>
            </trkpt>
            <trkpt lon="101.507611" lat="12.829092">
                <ele>44.838623</ele>
                <time>2006-09-24T04:55:30Z</time>
            </trkpt>
            <trkpt lon="101.507343" lat="12.829192">
                <ele>43.396606</ele>
                <time>2006-09-24T04:55:51Z</time>
            </trkpt>
            <trkpt lon="101.507034" lat="12.829544">
                <ele>43.396606</ele>
                <time>2006-09-24T04:56:05Z</time>
            </trkpt>
            <trkpt lon="101.507032" lat="12.829937">
                <ele>44.358032</ele>
                <time>2006-09-24T04:56:14Z</time>
            </trkpt>
            <trkpt lon="101.506931" lat="12.830549">
                <ele>46.280640</ele>
                <time>2006-09-24T04:56:29Z</time>
            </trkpt>
            <trkpt lon="101.506803" lat="12.831015">
                <ele>46.280640</ele>
                <time>2006-09-24T04:56:45Z</time>
            </trkpt>
            <trkpt lon="101.506614" lat="12.831598">
                <ele>48.683960</ele>
                <time>2006-09-24T04:57:01Z</time>
            </trkpt>
            <trkpt lon="101.506557" lat="12.831622">
                <ele>48.683960</ele>
                <time>2006-09-24T04:57:02Z</time>
            </trkpt>
            <trkpt lon="101.506253" lat="12.832575">
                <ele>48.683960</ele>
                <time>2006-09-24T04:57:24Z</time>
            </trkpt>
            <trkpt lon="101.506096" lat="12.833091">
                <ele>45.319214</ele>
                <time>2006-09-24T04:57:39Z</time>
            </trkpt>
            <trkpt lon="101.505785" lat="12.834166">
                <ele>38.109375</ele>
                <time>2006-09-24T04:58:18Z</time>
            </trkpt>
            <trkpt lon="101.505704" lat="12.834208">
                <ele>42.435425</ele>
                <time>2006-09-24T04:58:23Z</time>
            </trkpt>
            <trkpt lon="101.505457" lat="12.834314">
                <ele>42.435425</ele>
                <time>2006-09-24T04:58:33Z</time>
            </trkpt>
            <trkpt lon="101.505356" lat="12.834372">
                <ele>44.358032</ele>
                <time>2006-09-24T04:58:36Z</time>
            </trkpt>
            <trkpt lon="101.505233" lat="12.834807">
                <ele>45.319214</ele>
                <time>2006-09-24T04:58:49Z</time>
            </trkpt>
            <trkpt lon="101.505213" lat="12.834969">
                <ele>42.435425</ele>
                <time>2006-09-24T04:58:54Z</time>
            </trkpt>
            <trkpt lon="101.505045" lat="12.835404">
                <ele>50.606567</ele>
                <time>2006-09-24T04:59:06Z</time>
            </trkpt>
            <trkpt lon="101.504983" lat="12.836278">
                <ele>48.683960</ele>
                <time>2006-09-24T04:59:31Z</time>
            </trkpt>
            <trkpt lon="101.504706" lat="12.836366">
                <ele>48.203369</ele>
                <time>2006-09-24T04:59:38Z</time>
            </trkpt>
            <trkpt lon="101.503987" lat="12.836375">
                <ele>47.241821</ele>
                <time>2006-09-24T04:59:56Z</time>
            </trkpt>
            <trkpt lon="101.503789" lat="12.836420">
                <ele>48.203369</ele>
                <time>2006-09-24T05:00:05Z</time>
            </trkpt>
            <trkpt lon="101.503408" lat="12.836451">
                <ele>44.358032</ele>
                <time>2006-09-24T05:00:19Z</time>
            </trkpt>
            <trkpt lon="101.502913" lat="12.836498">
                <ele>45.319214</ele>
                <time>2006-09-24T05:00:32Z</time>
            </trkpt>
            <trkpt lon="101.501931" lat="12.836507">
                <ele>44.358032</ele>
                <time>2006-09-24T05:00:51Z</time>
            </trkpt>
            <trkpt lon="101.501215" lat="12.836564">
                <ele>43.396606</ele>
                <time>2006-09-24T05:01:06Z</time>
            </trkpt>
            <trkpt lon="101.500318" lat="12.836537">
                <ele>43.877319</ele>
                <time>2006-09-24T05:01:24Z</time>
            </trkpt>
            <trkpt lon="101.500168" lat="12.837169">
                <ele>49.164551</ele>
                <time>2006-09-24T05:01:47Z</time>
            </trkpt>
            <trkpt lon="101.500154" lat="12.837810">
                <ele>51.567871</ele>
                <time>2006-09-24T05:02:05Z</time>
            </trkpt>
            <trkpt lon="101.500169" lat="12.838009">
                <ele>55.893799</ele>
                <time>2006-09-24T05:02:12Z</time>
            </trkpt>
            <trkpt lon="101.500133" lat="12.839132">
                <ele>56.374512</ele>
                <time>2006-09-24T05:02:42Z</time>
            </trkpt>
            <trkpt lon="101.500099" lat="12.840494">
                <ele>60.219727</ele>
                <time>2006-09-24T05:03:18Z</time>
            </trkpt>
            <trkpt lon="101.500022" lat="12.841547">
                <ele>63.584351</ele>
                <time>2006-09-24T05:03:45Z</time>
            </trkpt>
            <trkpt lon="101.500107" lat="12.841622">
                <ele>63.584351</ele>
                <time>2006-09-24T05:03:49Z</time>
            </trkpt>
            <trkpt lon="101.500583" lat="12.841735">
                <ele>62.142334</ele>
                <time>2006-09-24T05:04:03Z</time>
            </trkpt>
            <trkpt lon="101.501245" lat="12.841783">
                <ele>63.584351</ele>
                <time>2006-09-24T05:04:21Z</time>
            </trkpt>
            <trkpt lon="101.501781" lat="12.841816">
                <ele>66.948975</ele>
                <time>2006-09-24T05:04:39Z</time>
            </trkpt>
            <trkpt lon="101.502369" lat="12.841791">
                <ele>64.065063</ele>
                <time>2006-09-24T05:04:58Z</time>
            </trkpt>
            <trkpt lon="101.503003" lat="12.841565">
                <ele>66.468262</ele>
                <time>2006-09-24T05:05:15Z</time>
            </trkpt>
            <trkpt lon="101.503739" lat="12.841074">
                <ele>64.065063</ele>
                <time>2006-09-24T05:05:32Z</time>
            </trkpt>
            <trkpt lon="101.504812" lat="12.840556">
                <ele>63.584351</ele>
                <time>2006-09-24T05:05:53Z</time>
            </trkpt>
            <trkpt lon="101.505061" lat="12.840484">
                <ele>61.661743</ele>
                <time>2006-09-24T05:05:58Z</time>
            </trkpt>
            <trkpt lon="101.505535" lat="12.840459">
                <ele>59.739136</ele>
                <time>2006-09-24T05:06:07Z</time>
            </trkpt>
            <trkpt lon="101.506217" lat="12.840955">
                <ele>60.219727</ele>
                <time>2006-09-24T05:06:22Z</time>
            </trkpt>
            <trkpt lon="101.507154" lat="12.841655">
                <ele>60.219727</ele>
                <time>2006-09-24T05:06:42Z</time>
            </trkpt>
            <trkpt lon="101.507874" lat="12.842146">
                <ele>62.622925</ele>
                <time>2006-09-24T05:07:00Z</time>
            </trkpt>
            <trkpt lon="101.507922" lat="12.842164">
                <ele>62.622925</ele>
                <time>2006-09-24T05:07:01Z</time>
            </trkpt>
            <trkpt lon="101.508018" lat="12.842194">
                <ele>62.142334</ele>
                <time>2006-09-24T05:07:03Z</time>
            </trkpt>
            <trkpt lon="101.508103" lat="12.842239">
                <ele>62.142334</ele>
                <time>2006-09-24T05:07:05Z</time>
            </trkpt>
            <trkpt lon="101.508309" lat="12.842628">
                <ele>63.584351</ele>
                <time>2006-09-24T05:07:14Z</time>
            </trkpt>
            <trkpt lon="101.508312" lat="12.842865">
                <ele>64.065063</ele>
                <time>2006-09-24T05:07:19Z</time>
            </trkpt>
            <trkpt lon="101.508350" lat="12.843172">
                <ele>63.103638</ele>
                <time>2006-09-24T05:07:26Z</time>
            </trkpt>
            <trkpt lon="101.508358" lat="12.843434">
                <ele>63.103638</ele>
                <time>2006-09-24T05:07:32Z</time>
            </trkpt>
            <trkpt lon="101.508654" lat="12.843863">
                <ele>62.142334</ele>
                <time>2006-09-24T05:07:47Z</time>
            </trkpt>
            <trkpt lon="101.509042" lat="12.844288">
                <ele>62.142334</ele>
                <time>2006-09-24T05:08:08Z</time>
            </trkpt>
            <trkpt lon="101.509453" lat="12.844655">
                <ele>64.065063</ele>
                <time>2006-09-24T05:08:26Z</time>
            </trkpt>
            <trkpt lon="101.509788" lat="12.845114">
                <ele>63.584351</ele>
                <time>2006-09-24T05:08:41Z</time>
            </trkpt>
            <trkpt lon="101.509940" lat="12.845743">
                <ele>68.871582</ele>
                <time>2006-09-24T05:08:57Z</time>
            </trkpt>
            <trkpt lon="101.509998" lat="12.846432">
                <ele>67.910278</ele>
                <time>2006-09-24T05:09:13Z</time>
            </trkpt>
            <trkpt lon="101.510103" lat="12.846871">
                <ele>68.871582</ele>
                <time>2006-09-24T05:09:27Z</time>
            </trkpt>
            <trkpt lon="101.510213" lat="12.847480">
                <ele>70.794189</ele>
                <time>2006-09-24T05:09:43Z</time>
            </trkpt>
            <trkpt lon="101.510264" lat="12.848017">
                <ele>71.274902</ele>
                <time>2006-09-24T05:09:57Z</time>
            </trkpt>
            <trkpt lon="101.510282" lat="12.848256">
                <ele>70.794189</ele>
                <time>2006-09-24T05:10:03Z</time>
            </trkpt>
            <trkpt lon="101.510263" lat="12.848482">
                <ele>70.794189</ele>
                <time>2006-09-24T05:10:07Z</time>
            </trkpt>
            <trkpt lon="101.509979" lat="12.849095">
                <ele>71.274902</ele>
                <time>2006-09-24T05:10:22Z</time>
            </trkpt>
            <trkpt lon="101.509662" lat="12.849693">
                <ele>72.236206</ele>
                <time>2006-09-24T05:10:41Z</time>
            </trkpt>
            <trkpt lon="101.509619" lat="12.850054">
                <ele>78.004028</ele>
                <time>2006-09-24T05:10:54Z</time>
            </trkpt>
            <trkpt lon="101.509576" lat="12.850428">
                <ele>78.965454</ele>
                <time>2006-09-24T05:11:11Z</time>
            </trkpt>
            <trkpt lon="101.509589" lat="12.850885">
                <ele>77.523438</ele>
                <time>2006-09-24T05:11:24Z</time>
            </trkpt>
            <trkpt lon="101.509672" lat="12.851109">
                <ele>75.600830</ele>
                <time>2006-09-24T05:11:29Z</time>
            </trkpt>
            <trkpt lon="101.510137" lat="12.851586">
                <ele>72.716919</ele>
                <time>2006-09-24T05:11:43Z</time>
            </trkpt>
            <trkpt lon="101.510616" lat="12.851809">
                <ele>75.120239</ele>
                <time>2006-09-24T05:11:57Z</time>
            </trkpt>
            <trkpt lon="101.510803" lat="12.851900">
                <ele>73.678223</ele>
                <time>2006-09-24T05:12:04Z</time>
            </trkpt>
            <trkpt lon="101.512007" lat="12.851981">
                <ele>73.678223</ele>
                <time>2006-09-24T05:12:26Z</time>
            </trkpt>
            <trkpt lon="101.512793" lat="12.852077">
                <ele>74.639526</ele>
                <time>2006-09-24T05:12:42Z</time>
            </trkpt>
            <trkpt lon="101.513502" lat="12.852080">
                <ele>73.678223</ele>
                <time>2006-09-24T05:12:56Z</time>
            </trkpt>
            <trkpt lon="101.513646" lat="12.852044">
                <ele>73.678223</ele>
                <time>2006-09-24T05:12:59Z</time>
            </trkpt>
            <trkpt lon="101.514147" lat="12.851989">
                <ele>75.120239</ele>
                <time>2006-09-24T05:13:13Z</time>
            </trkpt>
            <trkpt lon="101.514786" lat="12.851784">
                <ele>73.678223</ele>
                <time>2006-09-24T05:13:31Z</time>
            </trkpt>
            <trkpt lon="101.515075" lat="12.851634">
                <ele>74.158813</ele>
                <time>2006-09-24T05:13:46Z</time>
            </trkpt>
            <trkpt lon="101.515398" lat="12.851412">
                <ele>75.120239</ele>
                <time>2006-09-24T05:14:03Z</time>
            </trkpt>
            <trkpt lon="101.515385" lat="12.851417">
                <ele>75.120239</ele>
                <time>2006-09-24T05:14:09Z</time>
            </trkpt>
            <trkpt lon="101.515323" lat="12.851358">
                <ele>75.120239</ele>
                <time>2006-09-24T05:14:14Z</time>
            </trkpt>
            <trkpt lon="101.515145" lat="12.851016">
                <ele>71.755493</ele>
                <time>2006-09-24T05:14:30Z</time>
            </trkpt>
            <trkpt lon="101.514948" lat="12.850667">
                <ele>70.313477</ele>
                <time>2006-09-24T05:14:44Z</time>
            </trkpt>
            <trkpt lon="101.514794" lat="12.850398">
                <ele>70.794189</ele>
                <time>2006-09-24T05:14:54Z</time>
            </trkpt>
            <trkpt lon="101.514796" lat="12.850172">
                <ele>71.755493</ele>
                <time>2006-09-24T05:15:02Z</time>
            </trkpt>
            <trkpt lon="101.514807" lat="12.850130">
                <ele>73.197632</ele>
                <time>2006-09-24T05:15:05Z</time>
            </trkpt>
            <trkpt lon="101.514978" lat="12.850003">
                <ele>73.678223</ele>
                <time>2006-09-24T05:15:16Z</time>
            </trkpt>
            <trkpt lon="101.515013" lat="12.849895">
                <ele>73.678223</ele>
                <time>2006-09-24T05:15:20Z</time>
            </trkpt>
            <trkpt lon="101.514993" lat="12.849826">
                <ele>74.158813</ele>
                <time>2006-09-24T05:15:23Z</time>
            </trkpt>
            <trkpt lon="101.515184" lat="12.849682">
                <ele>74.158813</ele>
                <time>2006-09-24T05:15:32Z</time>
            </trkpt>
            <trkpt lon="101.515206" lat="12.849479">
                <ele>76.081421</ele>
                <time>2006-09-24T05:15:40Z</time>
            </trkpt>
            <trkpt lon="101.515224" lat="12.849146">
                <ele>78.484741</ele>
                <time>2006-09-24T05:16:02Z</time>
            </trkpt>
            <trkpt lon="101.515414" lat="12.848984">
                <ele>77.523438</ele>
                <time>2006-09-24T05:16:18Z</time>
            </trkpt>
            <trkpt lon="101.515425" lat="12.848986">
                <ele>77.042847</ele>
                <time>2006-09-24T05:16:19Z</time>
            </trkpt>
            <trkpt lon="101.515752" lat="12.848972">
                <ele>76.562134</ele>
                <time>2006-09-24T05:16:36Z</time>
            </trkpt>
            <trkpt lon="101.516108" lat="12.848882">
                <ele>77.523438</ele>
                <time>2006-09-24T05:16:51Z</time>
            </trkpt>
            <trkpt lon="101.516207" lat="12.848777">
                <ele>77.523438</ele>
                <time>2006-09-24T05:17:03Z</time>
            </trkpt>
            <trkpt lon="101.516484" lat="12.848691">
                <ele>78.004028</ele>
                <time>2006-09-24T05:17:16Z</time>
            </trkpt>
            <trkpt lon="101.516818" lat="12.848589">
                <ele>81.368774</ele>
                <time>2006-09-24T05:17:30Z</time>
            </trkpt>
            <trkpt lon="101.517059" lat="12.848706">
                <ele>80.407471</ele>
                <time>2006-09-24T05:17:44Z</time>
            </trkpt>
            <trkpt lon="101.517081" lat="12.848758">
                <ele>82.330078</ele>
                <time>2006-09-24T05:17:49Z</time>
            </trkpt>
            <trkpt lon="101.517078" lat="12.848882">
                <ele>83.291382</ele>
                <time>2006-09-24T05:17:58Z</time>
            </trkpt>
            <trkpt lon="101.517141" lat="12.848857">
                <ele>81.849365</ele>
                <time>2006-09-24T05:18:04Z</time>
            </trkpt>
            <trkpt lon="101.517226" lat="12.848687">
                <ele>81.849365</ele>
                <time>2006-09-24T05:18:23Z</time>
            </trkpt>
            <trkpt lon="101.517309" lat="12.848491">
                <ele>83.291382</ele>
                <time>2006-09-24T05:18:38Z</time>
            </trkpt>
            <trkpt lon="101.517392" lat="12.848376">
                <ele>84.252686</ele>
                <time>2006-09-24T05:18:49Z</time>
            </trkpt>
            <trkpt lon="101.517689" lat="12.848279">
                <ele>85.213989</ele>
                <time>2006-09-24T05:19:01Z</time>
            </trkpt>
            <trkpt lon="101.518545" lat="12.847690">
                <ele>80.888184</ele>
                <time>2006-09-24T05:19:12Z</time>
            </trkpt>
            <trkpt lon="101.519510" lat="12.847005">
                <ele>76.562134</ele>
                <time>2006-09-24T05:19:25Z</time>
            </trkpt>
            <trkpt lon="101.519638" lat="12.846867">
                <ele>74.639526</ele>
                <time>2006-09-24T05:19:31Z</time>
            </trkpt>
            <trkpt lon="101.519548" lat="12.846669">
                <ele>68.871582</ele>
                <time>2006-09-24T05:19:46Z</time>
            </trkpt>
            <trkpt lon="101.519303" lat="12.846439">
                <ele>67.910278</ele>
                <time>2006-09-24T05:20:01Z</time>
            </trkpt>
            <trkpt lon="101.519291" lat="12.846384">
                <ele>68.390869</ele>
                <time>2006-09-24T05:20:04Z</time>
            </trkpt>
            <trkpt lon="101.520043" lat="12.846076">
                <ele>71.274902</ele>
                <time>2006-09-24T05:20:33Z</time>
            </trkpt>
            <trkpt lon="101.520455" lat="12.846035">
                <ele>69.352295</ele>
                <time>2006-09-24T05:20:41Z</time>
            </trkpt>
            <trkpt lon="101.520641" lat="12.846114">
                <ele>67.910278</ele>
                <time>2006-09-24T05:20:45Z</time>
            </trkpt>
            <trkpt lon="101.520844" lat="12.846548">
                <ele>65.026367</ele>
                <time>2006-09-24T05:20:53Z</time>
            </trkpt>
            <trkpt lon="101.520993" lat="12.846674">
                <ele>64.545654</ele>
                <time>2006-09-24T05:20:57Z</time>
            </trkpt>
            <trkpt lon="101.521351" lat="12.846723">
                <ele>61.661743</ele>
                <time>2006-09-24T05:21:03Z</time>
            </trkpt>
            <trkpt lon="101.522555" lat="12.846760">
                <ele>56.374512</ele>
                <time>2006-09-24T05:21:22Z</time>
            </trkpt>
            <trkpt lon="101.523463" lat="12.846789">
                <ele>50.606567</ele>
                <time>2006-09-24T05:21:36Z</time>
            </trkpt>
            <trkpt lon="101.524149" lat="12.846858">
                <ele>51.567871</ele>
                <time>2006-09-24T05:21:49Z</time>
            </trkpt>
            <trkpt lon="101.524765" lat="12.846725">
                <ele>52.529175</ele>
                <time>2006-09-24T05:22:05Z</time>
            </trkpt>
            <trkpt lon="101.525274" lat="12.846539">
                <ele>53.971191</ele>
                <time>2006-09-24T05:22:20Z</time>
            </trkpt>
            <trkpt lon="101.526222" lat="12.846651">
                <ele>52.529175</ele>
                <time>2006-09-24T05:22:39Z</time>
            </trkpt>
            <trkpt lon="101.526484" lat="12.846684">
                <ele>51.087158</ele>
                <time>2006-09-24T05:22:43Z</time>
            </trkpt>
            <trkpt lon="101.527457" lat="12.847136">
                <ele>47.722534</ele>
                <time>2006-09-24T05:22:57Z</time>
            </trkpt>
            <trkpt lon="101.528683" lat="12.847706">
                <ele>45.799927</ele>
                <time>2006-09-24T05:23:16Z</time>
            </trkpt>
            <trkpt lon="101.529218" lat="12.847943">
                <ele>46.761230</ele>
                <time>2006-09-24T05:23:27Z</time>
            </trkpt>
            <trkpt lon="101.529264" lat="12.847935">
                <ele>45.799927</ele>
                <time>2006-09-24T05:23:34Z</time>
            </trkpt>
            <trkpt lon="101.529245" lat="12.847913">
                <ele>45.319214</ele>
                <time>2006-09-24T05:23:41Z</time>
            </trkpt>
            <trkpt lon="101.529144" lat="12.847903">
                <ele>45.319214</ele>
                <time>2006-09-24T05:23:47Z</time>
            </trkpt>
            <trkpt lon="101.528503" lat="12.847653">
                <ele>41.954712</ele>
                <time>2006-09-24T05:24:04Z</time>
            </trkpt>
            <trkpt lon="101.527730" lat="12.847303">
                <ele>39.551270</ele>
                <time>2006-09-24T05:24:22Z</time>
            </trkpt>
            <trkpt lon="101.527100" lat="12.846978">
                <ele>40.032104</ele>
                <time>2006-09-24T05:24:41Z</time>
            </trkpt>
            <trkpt lon="101.526624" lat="12.846704">
                <ele>44.358032</ele>
                <time>2006-09-24T05:24:59Z</time>
            </trkpt>
            <trkpt lon="101.526352" lat="12.846556">
                <ele>48.203369</ele>
                <time>2006-09-24T05:25:17Z</time>
            </trkpt>
            <trkpt lon="101.526250" lat="12.846345">
                <ele>49.645264</ele>
                <time>2006-09-24T05:25:25Z</time>
            </trkpt>
            <trkpt lon="101.526044" lat="12.845522">
                <ele>52.048584</ele>
                <time>2006-09-24T05:25:41Z</time>
            </trkpt>
            <trkpt lon="101.525995" lat="12.845243">
                <ele>51.567871</ele>
                <time>2006-09-24T05:25:46Z</time>
            </trkpt>
            <trkpt lon="101.525995" lat="12.845131">
                <ele>51.567871</ele>
                <time>2006-09-24T05:25:48Z</time>
            </trkpt>
            <trkpt lon="101.526131" lat="12.844731">
                <ele>50.606567</ele>
                <time>2006-09-24T05:25:56Z</time>
            </trkpt>
            <trkpt lon="101.526201" lat="12.844599">
                <ele>49.645264</ele>
                <time>2006-09-24T05:25:59Z</time>
            </trkpt>
            <trkpt lon="101.526293" lat="12.844338">
                <ele>47.722534</ele>
                <time>2006-09-24T05:26:04Z</time>
            </trkpt>
            <trkpt lon="101.526352" lat="12.843416">
                <ele>49.164551</ele>
                <time>2006-09-24T05:26:19Z</time>
            </trkpt>
            <trkpt lon="101.526346" lat="12.843052">
                <ele>53.490479</ele>
                <time>2006-09-24T05:26:33Z</time>
            </trkpt>
            <trkpt lon="101.526351" lat="12.842807">
                <ele>57.335815</ele>
                <time>2006-09-24T05:26:49Z</time>
            </trkpt>
            <trkpt lon="101.526574" lat="12.842470">
                <ele>61.661743</ele>
                <time>2006-09-24T05:27:11Z</time>
            </trkpt>
            <trkpt lon="101.526865" lat="12.842122">
                <ele>64.545654</ele>
                <time>2006-09-24T05:27:33Z</time>
            </trkpt>
            <trkpt lon="101.526890" lat="12.842103">
                <ele>65.026367</ele>
                <time>2006-09-24T05:27:34Z</time>
            </trkpt>
            <trkpt lon="101.527692" lat="12.841573">
                <ele>61.181030</ele>
                <time>2006-09-24T05:28:01Z</time>
            </trkpt>
            <trkpt lon="101.527981" lat="12.841360">
                <ele>61.181030</ele>
                <time>2006-09-24T05:28:09Z</time>
            </trkpt>
            <trkpt lon="101.528096" lat="12.841165">
                <ele>59.739136</ele>
                <time>2006-09-24T05:28:14Z</time>
            </trkpt>
            <trkpt lon="101.528139" lat="12.840973">
                <ele>59.739136</ele>
                <time>2006-09-24T05:28:23Z</time>
            </trkpt>
            <trkpt lon="101.528148" lat="12.840826">
                <ele>65.026367</ele>
                <time>2006-09-24T05:28:41Z</time>
            </trkpt>
            <trkpt lon="101.528223" lat="12.840259">
                <ele>63.103638</ele>
                <time>2006-09-24T05:28:54Z</time>
            </trkpt>
            <trkpt lon="101.528226" lat="12.839368">
                <ele>62.142334</ele>
                <time>2006-09-24T05:29:10Z</time>
            </trkpt>
            <trkpt lon="101.528411" lat="12.839118">
                <ele>61.181030</ele>
                <time>2006-09-24T05:29:16Z</time>
            </trkpt>
            <trkpt lon="101.528826" lat="12.838860">
                <ele>60.219727</ele>
                <time>2006-09-24T05:29:32Z</time>
            </trkpt>
            <trkpt lon="101.529269" lat="12.838672">
                <ele>60.219727</ele>
                <time>2006-09-24T05:29:49Z</time>
            </trkpt>
            <trkpt lon="101.529659" lat="12.838548">
                <ele>64.065063</ele>
                <time>2006-09-24T05:30:06Z</time>
            </trkpt>
            <trkpt lon="101.530145" lat="12.838399">
                <ele>62.622925</ele>
                <time>2006-09-24T05:30:21Z</time>
            </trkpt>
            <trkpt lon="101.531158" lat="12.838314">
                <ele>65.987671</ele>
                <time>2006-09-24T05:30:39Z</time>
            </trkpt>
            <trkpt lon="101.531693" lat="12.838091">
                <ele>69.832886</ele>
                <time>2006-09-24T05:30:53Z</time>
            </trkpt>
            <trkpt lon="101.532731" lat="12.837683">
                <ele>72.716919</ele>
                <time>2006-09-24T05:31:26Z</time>
            </trkpt>
            <trkpt lon="101.533764" lat="12.836981">
                <ele>76.562134</ele>
                <time>2006-09-24T05:32:00Z</time>
            </trkpt>
            <trkpt lon="101.534804" lat="12.836536">
                <ele>77.523438</ele>
                <time>2006-09-24T05:32:16Z</time>
            </trkpt>
            <trkpt lon="101.536752" lat="12.835689">
                <ele>73.678223</ele>
                <time>2006-09-24T05:32:45Z</time>
            </trkpt>
            <trkpt lon="101.538017" lat="12.835167">
                <ele>58.297119</ele>
                <time>2006-09-24T05:33:01Z</time>
            </trkpt>
            <trkpt lon="101.539420" lat="12.834576">
                <ele>51.087158</ele>
                <time>2006-09-24T05:33:21Z</time>
            </trkpt>
            <trkpt lon="101.540746" lat="12.834067">
                <ele>45.799927</ele>
                <time>2006-09-24T05:33:41Z</time>
            </trkpt>
            <trkpt lon="101.542171" lat="12.833635">
                <ele>43.877319</ele>
                <time>2006-09-24T05:34:03Z</time>
            </trkpt>
            <trkpt lon="101.542948" lat="12.833382">
                <ele>42.435425</ele>
                <time>2006-09-24T05:34:20Z</time>
            </trkpt>
            <trkpt lon="101.543727" lat="12.833076">
                <ele>42.916016</ele>
                <time>2006-09-24T05:34:40Z</time>
            </trkpt>
            <trkpt lon="101.544577" lat="12.832656">
                <ele>45.319214</ele>
                <time>2006-09-24T05:35:02Z</time>
            </trkpt>
            <trkpt lon="101.545170" lat="12.832344">
                <ele>48.203369</ele>
                <time>2006-09-24T05:35:19Z</time>
            </trkpt>
            <trkpt lon="101.545919" lat="12.832314">
                <ele>49.645264</ele>
                <time>2006-09-24T05:35:35Z</time>
            </trkpt>
            <trkpt lon="101.546623" lat="12.832429">
                <ele>51.087158</ele>
                <time>2006-09-24T05:35:51Z</time>
            </trkpt>
            <trkpt lon="101.546727" lat="12.832041">
                <ele>50.125977</ele>
                <time>2006-09-24T05:36:03Z</time>
            </trkpt>
            <trkpt lon="101.547031" lat="12.831272">
                <ele>50.125977</ele>
                <time>2006-09-24T05:36:18Z</time>
            </trkpt>
            <trkpt lon="101.547169" lat="12.831009">
                <ele>50.125977</ele>
                <time>2006-09-24T05:36:23Z</time>
            </trkpt>
            <trkpt lon="101.547581" lat="12.830255">
                <ele>50.606567</ele>
                <time>2006-09-24T05:36:35Z</time>
            </trkpt>
            <trkpt lon="101.548084" lat="12.829075">
                <ele>46.761230</ele>
                <time>2006-09-24T05:36:53Z</time>
            </trkpt>
            <trkpt lon="101.548671" lat="12.827718">
                <ele>42.435425</ele>
                <time>2006-09-24T05:37:14Z</time>
            </trkpt>
            <trkpt lon="101.549088" lat="12.826727">
                <ele>41.954712</ele>
                <time>2006-09-24T05:37:31Z</time>
            </trkpt>
            <trkpt lon="101.549508" lat="12.825761">
                <ele>38.590088</ele>
                <time>2006-09-24T05:37:47Z</time>
            </trkpt>
            <trkpt lon="101.550105" lat="12.824264">
                <ele>36.667480</ele>
                <time>2006-09-24T05:38:11Z</time>
            </trkpt>
            <trkpt lon="101.550503" lat="12.823273">
                <ele>38.590088</ele>
                <time>2006-09-24T05:38:29Z</time>
            </trkpt>
            <trkpt lon="101.550966" lat="12.822116">
                <ele>38.109375</ele>
                <time>2006-09-24T05:38:51Z</time>
            </trkpt>
            <trkpt lon="101.551495" lat="12.820747">
                <ele>37.148071</ele>
                <time>2006-09-24T05:39:15Z</time>
            </trkpt>
            <trkpt lon="101.552080" lat="12.819232">
                <ele>40.032104</ele>
                <time>2006-09-24T05:39:42Z</time>
            </trkpt>
            <trkpt lon="101.552598" lat="12.817906">
                <ele>37.148071</ele>
                <time>2006-09-24T05:40:05Z</time>
            </trkpt>
            <trkpt lon="101.553136" lat="12.816565">
                <ele>35.706055</ele>
                <time>2006-09-24T05:40:27Z</time>
            </trkpt>
            <trkpt lon="101.553852" lat="12.815467">
                <ele>32.341553</ele>
                <time>2006-09-24T05:40:46Z</time>
            </trkpt>
            <trkpt lon="101.554804" lat="12.814463">
                <ele>31.380127</ele>
                <time>2006-09-24T05:41:07Z</time>
            </trkpt>
            <trkpt lon="101.555766" lat="12.813543">
                <ele>32.341553</ele>
                <time>2006-09-24T05:41:28Z</time>
            </trkpt>
            <trkpt lon="101.556338" lat="12.813013">
                <ele>31.860718</ele>
                <time>2006-09-24T05:41:41Z</time>
            </trkpt>
            <trkpt lon="101.558902" lat="12.810853">
                <ele>28.015503</ele>
                <time>2006-09-24T05:42:35Z</time>
            </trkpt>
            <trkpt lon="101.559531" lat="12.810214">
                <ele>25.612305</ele>
                <time>2006-09-24T05:42:49Z</time>
            </trkpt>
            <trkpt lon="101.559610" lat="12.810111">
                <ele>25.131714</ele>
                <time>2006-09-24T05:42:51Z</time>
            </trkpt>
            <trkpt lon="101.560928" lat="12.809080">
                <ele>24.170288</ele>
                <time>2006-09-24T05:43:15Z</time>
            </trkpt>
            <trkpt lon="101.561740" lat="12.808069">
                <ele>23.208984</ele>
                <time>2006-09-24T05:43:35Z</time>
            </trkpt>
            <trkpt lon="101.562626" lat="12.807114">
                <ele>22.247559</ele>
                <time>2006-09-24T05:43:55Z</time>
            </trkpt>
            <trkpt lon="101.563453" lat="12.806750">
                <ele>22.247559</ele>
                <time>2006-09-24T05:44:11Z</time>
            </trkpt>
            <trkpt lon="101.563460" lat="12.806497">
                <ele>21.766968</ele>
                <time>2006-09-24T05:44:18Z</time>
            </trkpt>
            <trkpt lon="101.563430" lat="12.806459">
                <ele>21.766968</ele>
                <time>2006-09-24T05:44:19Z</time>
            </trkpt>
            <trkpt lon="101.562849" lat="12.805742">
                <ele>21.286377</ele>
                <time>2006-09-24T05:44:38Z</time>
            </trkpt>
            <trkpt lon="101.562654" lat="12.805534">
                <ele>20.805664</ele>
                <time>2006-09-24T05:44:44Z</time>
            </trkpt>
            <trkpt lon="101.562485" lat="12.805404">
                <ele>21.766968</ele>
                <time>2006-09-24T05:44:49Z</time>
            </trkpt>
            <trkpt lon="101.561603" lat="12.805337">
                <ele>20.324951</ele>
                <time>2006-09-24T05:45:07Z</time>
            </trkpt>
            <trkpt lon="101.561024" lat="12.805241">
                <ele>20.324951</ele>
                <time>2006-09-24T05:45:18Z</time>
            </trkpt>
            <trkpt lon="101.560932" lat="12.805204">
                <ele>20.324951</ele>
                <time>2006-09-24T05:45:20Z</time>
            </trkpt>
            <trkpt lon="101.560800" lat="12.805128">
                <ele>19.844360</ele>
                <time>2006-09-24T05:45:23Z</time>
            </trkpt>
            <trkpt lon="101.560499" lat="12.804922">
                <ele>19.844360</ele>
                <time>2006-09-24T05:45:30Z</time>
            </trkpt>
            <trkpt lon="101.559448" lat="12.804650">
                <ele>18.402344</ele>
                <time>2006-09-24T05:45:48Z</time>
            </trkpt>
            <trkpt lon="101.558944" lat="12.804545">
                <ele>17.921753</ele>
                <time>2006-09-24T05:45:58Z</time>
            </trkpt>
            <trkpt lon="101.558513" lat="12.804493">
                <ele>18.402344</ele>
                <time>2006-09-24T05:46:08Z</time>
            </trkpt>
            <trkpt lon="101.557788" lat="12.804254">
                <ele>17.921753</ele>
                <time>2006-09-24T05:46:25Z</time>
            </trkpt>
            <trkpt lon="101.557537" lat="12.804187">
                <ele>17.441162</ele>
                <time>2006-09-24T05:46:32Z</time>
            </trkpt>
            <trkpt lon="101.557216" lat="12.804100">
                <ele>17.921753</ele>
                <time>2006-09-24T05:46:40Z</time>
            </trkpt>
            <trkpt lon="101.557031" lat="12.803891">
                <ele>18.883057</ele>
                <time>2006-09-24T05:46:47Z</time>
            </trkpt>
            <trkpt lon="101.556878" lat="12.803537">
                <ele>18.883057</ele>
                <time>2006-09-24T05:46:56Z</time>
            </trkpt>
            <trkpt lon="101.556706" lat="12.803118">
                <ele>19.363770</ele>
                <time>2006-09-24T05:47:06Z</time>
            </trkpt>
            <trkpt lon="101.556644" lat="12.802977">
                <ele>20.805664</ele>
                <time>2006-09-24T05:47:11Z</time>
            </trkpt>
            <trkpt lon="101.555909" lat="12.803034">
                <ele>22.728271</ele>
                <time>2006-09-24T05:47:24Z</time>
            </trkpt>
            <trkpt lon="101.555979" lat="12.802953">
                <ele>22.728271</ele>
                <time>2006-09-24T05:47:26Z</time>
            </trkpt>
            <trkpt lon="101.557004" lat="12.801938">
                <ele>22.728271</ele>
                <time>2006-09-24T05:47:36Z</time>
            </trkpt>
            <trkpt lon="101.557826" lat="12.801013">
                <ele>22.728271</ele>
                <time>2006-09-24T05:47:59Z</time>
            </trkpt>
            <trkpt lon="101.558488" lat="12.800283">
                <ele>21.766968</ele>
                <time>2006-09-24T05:48:15Z</time>
            </trkpt>
            <trkpt lon="101.559237" lat="12.799492">
                <ele>20.324951</ele>
                <time>2006-09-24T05:48:32Z</time>
            </trkpt>
            <trkpt lon="101.559937" lat="12.798654">
                <ele>19.363770</ele>
                <time>2006-09-24T05:48:51Z</time>
            </trkpt>
            <trkpt lon="101.560074" lat="12.798254">
                <ele>18.402344</ele>
                <time>2006-09-24T05:48:59Z</time>
            </trkpt>
            <trkpt lon="101.560012" lat="12.797111">
                <ele>18.402344</ele>
                <time>2006-09-24T05:49:19Z</time>
            </trkpt>
            <trkpt lon="101.559932" lat="12.795930">
                <ele>17.921753</ele>
                <time>2006-09-24T05:49:40Z</time>
            </trkpt>
            <trkpt lon="101.559887" lat="12.795045">
                <ele>19.844360</ele>
                <time>2006-09-24T05:49:58Z</time>
            </trkpt>
            <trkpt lon="101.559953" lat="12.794525">
                <ele>22.247559</ele>
                <time>2006-09-24T05:50:13Z</time>
            </trkpt>
            <trkpt lon="101.560253" lat="12.793815">
                <ele>23.689575</ele>
                <time>2006-09-24T05:50:35Z</time>
            </trkpt>
            <trkpt lon="101.560639" lat="12.793208">
                <ele>25.612305</ele>
                <time>2006-09-24T05:50:53Z</time>
            </trkpt>
            <trkpt lon="101.561133" lat="12.792472">
                <ele>27.054321</ele>
                <time>2006-09-24T05:51:13Z</time>
            </trkpt>
            <trkpt lon="101.561506" lat="12.791955">
                <ele>28.015503</ele>
                <time>2006-09-24T05:51:27Z</time>
            </trkpt>
            <trkpt lon="101.562015" lat="12.791379">
                <ele>29.938110</ele>
                <time>2006-09-24T05:51:44Z</time>
            </trkpt>
            <trkpt lon="101.563445" lat="12.789663">
                <ele>32.822266</ele>
                <time>2006-09-24T05:52:39Z</time>
            </trkpt>
            <trkpt lon="101.564177" lat="12.788738">
                <ele>30.418823</ele>
                <time>2006-09-24T05:52:59Z</time>
            </trkpt>
            <trkpt lon="101.564330" lat="12.788136">
                <ele>30.899536</ele>
                <time>2006-09-24T05:53:10Z</time>
            </trkpt>
            <trkpt lon="101.564366" lat="12.787920">
                <ele>31.380127</ele>
                <time>2006-09-24T05:53:14Z</time>
            </trkpt>
            <trkpt lon="101.564380" lat="12.787815">
                <ele>31.380127</ele>
                <time>2006-09-24T05:53:16Z</time>
            </trkpt>
            <trkpt lon="101.564424" lat="12.787417">
                <ele>28.015503</ele>
                <time>2006-09-24T05:53:24Z</time>
            </trkpt>
            <trkpt lon="101.564241" lat="12.786131">
                <ele>30.418823</ele>
                <time>2006-09-24T05:53:49Z</time>
            </trkpt>
            <trkpt lon="101.563809" lat="12.785301">
                <ele>31.860718</ele>
                <time>2006-09-24T05:54:09Z</time>
            </trkpt>
            <trkpt lon="101.563656" lat="12.784925">
                <ele>31.860718</ele>
                <time>2006-09-24T05:54:18Z</time>
            </trkpt>
            <trkpt lon="101.563640" lat="12.784780">
                <ele>31.860718</ele>
                <time>2006-09-24T05:54:21Z</time>
            </trkpt>
            <trkpt lon="101.563638" lat="12.784682">
                <ele>31.860718</ele>
                <time>2006-09-24T05:54:23Z</time>
            </trkpt>
            <trkpt lon="101.563702" lat="12.784477">
                <ele>31.380127</ele>
                <time>2006-09-24T05:54:27Z</time>
            </trkpt>
            <trkpt lon="101.564359" lat="12.783573">
                <ele>30.899536</ele>
                <time>2006-09-24T05:54:46Z</time>
            </trkpt>
            <trkpt lon="101.565067" lat="12.782682">
                <ele>32.341553</ele>
                <time>2006-09-24T05:55:06Z</time>
            </trkpt>
            <trkpt lon="101.565213" lat="12.782456">
                <ele>33.302856</ele>
                <time>2006-09-24T05:55:12Z</time>
            </trkpt>
            <trkpt lon="101.565125" lat="12.782179">
                <ele>34.264160</ele>
                <time>2006-09-24T05:55:20Z</time>
            </trkpt>
            <trkpt lon="101.564507" lat="12.781644">
                <ele>36.186768</ele>
                <time>2006-09-24T05:55:42Z</time>
            </trkpt>
            <trkpt lon="101.563828" lat="12.781092">
                <ele>38.109375</ele>
                <time>2006-09-24T05:56:06Z</time>
            </trkpt>
            <trkpt lon="101.563185" lat="12.780632">
                <ele>42.916016</ele>
                <time>2006-09-24T05:56:26Z</time>
            </trkpt>
            <trkpt lon="101.562406" lat="12.780064">
                <ele>43.877319</ele>
                <time>2006-09-24T05:56:49Z</time>
            </trkpt>
            <trkpt lon="101.561809" lat="12.779560">
                <ele>43.877319</ele>
                <time>2006-09-24T05:57:07Z</time>
            </trkpt>
            <trkpt lon="101.561225" lat="12.778988">
                <ele>45.799927</ele>
                <time>2006-09-24T05:57:27Z</time>
            </trkpt>
            <trkpt lon="101.560877" lat="12.778629">
                <ele>46.280640</ele>
                <time>2006-09-24T05:57:41Z</time>
            </trkpt>
            <trkpt lon="101.560268" lat="12.778178">
                <ele>49.164551</ele>
                <time>2006-09-24T05:58:01Z</time>
            </trkpt>
            <trkpt lon="101.559709" lat="12.777889">
                <ele>48.203369</ele>
                <time>2006-09-24T05:58:16Z</time>
            </trkpt>
            <trkpt lon="101.558976" lat="12.777374">
                <ele>44.358032</ele>
                <time>2006-09-24T05:58:33Z</time>
            </trkpt>
            <trkpt lon="101.558141" lat="12.776627">
                <ele>40.512817</ele>
                <time>2006-09-24T05:58:48Z</time>
            </trkpt>
            <trkpt lon="101.557471" lat="12.776013">
                <ele>40.512817</ele>
                <time>2006-09-24T05:59:03Z</time>
            </trkpt>
            <trkpt lon="101.557038" lat="12.775613">
                <ele>43.396606</ele>
                <time>2006-09-24T05:59:17Z</time>
            </trkpt>
            <trkpt lon="101.556551" lat="12.775163">
                <ele>47.241821</ele>
                <time>2006-09-24T05:59:36Z</time>
            </trkpt>
            <trkpt lon="101.556066" lat="12.774717">
                <ele>49.645264</ele>
                <time>2006-09-24T05:59:55Z</time>
            </trkpt>
            <trkpt lon="101.555479" lat="12.774259">
                <ele>50.606567</ele>
                <time>2006-09-24T06:00:15Z</time>
            </trkpt>
            <trkpt lon="101.554891" lat="12.773867">
                <ele>48.683960</ele>
                <time>2006-09-24T06:00:30Z</time>
            </trkpt>
            <trkpt lon="101.554909" lat="12.773515">
                <ele>46.761230</ele>
                <time>2006-09-24T06:00:37Z</time>
            </trkpt>
            <trkpt lon="101.555380" lat="12.772750">
                <ele>42.916016</ele>
                <time>2006-09-24T06:00:52Z</time>
            </trkpt>
            <trkpt lon="101.556008" lat="12.771755">
                <ele>39.551270</ele>
                <time>2006-09-24T06:01:09Z</time>
            </trkpt>
            <trkpt lon="101.556420" lat="12.771095">
                <ele>39.070679</ele>
                <time>2006-09-24T06:01:24Z</time>
            </trkpt>
            <trkpt lon="101.556881" lat="12.770395">
                <ele>42.435425</ele>
                <time>2006-09-24T06:01:46Z</time>
            </trkpt>
            <trkpt lon="101.557293" lat="12.769983">
                <ele>42.916016</ele>
                <time>2006-09-24T06:02:02Z</time>
            </trkpt>
            <trkpt lon="101.557676" lat="12.769601">
                <ele>46.761230</ele>
                <time>2006-09-24T06:02:19Z</time>
            </trkpt>
            <trkpt lon="101.558157" lat="12.769130">
                <ele>53.490479</ele>
                <time>2006-09-24T06:02:41Z</time>
            </trkpt>
            <trkpt lon="101.558515" lat="12.768779">
                <ele>54.932373</ele>
                <time>2006-09-24T06:02:57Z</time>
            </trkpt>
            <trkpt lon="101.558680" lat="12.768633">
                <ele>55.413086</ele>
                <time>2006-09-24T06:03:03Z</time>
            </trkpt>
            <trkpt lon="101.558683" lat="12.768476">
                <ele>56.855103</ele>
                <time>2006-09-24T06:03:08Z</time>
            </trkpt>
            <trkpt lon="101.558461" lat="12.768159">
                <ele>57.816528</ele>
                <time>2006-09-24T06:03:22Z</time>
            </trkpt>
            <trkpt lon="101.557997" lat="12.767502">
                <ele>58.777710</ele>
                <time>2006-09-24T06:03:38Z</time>
            </trkpt>
            <trkpt lon="101.557657" lat="12.767056">
                <ele>57.816528</ele>
                <time>2006-09-24T06:03:46Z</time>
            </trkpt>
            <trkpt lon="101.556516" lat="12.767095">
                <ele>53.009766</ele>
                <time>2006-09-24T06:03:59Z</time>
            </trkpt>
            <trkpt lon="101.555047" lat="12.767225">
                <ele>47.722534</ele>
                <time>2006-09-24T06:04:17Z</time>
            </trkpt>
            <trkpt lon="101.554043" lat="12.767314">
                <ele>48.203369</ele>
                <time>2006-09-24T06:04:32Z</time>
            </trkpt>
            <trkpt lon="101.553762" lat="12.767150">
                <ele>48.203369</ele>
                <time>2006-09-24T06:04:38Z</time>
            </trkpt>
            <trkpt lon="101.553466" lat="12.767072">
                <ele>48.203369</ele>
                <time>2006-09-24T06:04:45Z</time>
            </trkpt>
            <trkpt lon="101.553312" lat="12.767179">
                <ele>47.241821</ele>
                <time>2006-09-24T06:04:49Z</time>
            </trkpt>
            <trkpt lon="101.552669" lat="12.767784">
                <ele>42.916016</ele>
                <time>2006-09-24T06:05:06Z</time>
            </trkpt>
            <trkpt lon="101.551877" lat="12.768565">
                <ele>39.070679</ele>
                <time>2006-09-24T06:05:24Z</time>
            </trkpt>
            <trkpt lon="101.551272" lat="12.769352">
                <ele>40.032104</ele>
                <time>2006-09-24T06:05:41Z</time>
            </trkpt>
            <trkpt lon="101.551000" lat="12.769707">
                <ele>43.396606</ele>
                <time>2006-09-24T06:05:57Z</time>
            </trkpt>
            <trkpt lon="101.550654" lat="12.770163">
                <ele>45.319214</ele>
                <time>2006-09-24T06:06:18Z</time>
            </trkpt>
            <trkpt lon="101.550328" lat="12.770613">
                <ele>49.164551</ele>
                <time>2006-09-24T06:06:39Z</time>
            </trkpt>
            <trkpt lon="101.550031" lat="12.770955">
                <ele>52.048584</ele>
                <time>2006-09-24T06:06:58Z</time>
            </trkpt>
            <trkpt lon="101.549754" lat="12.771242">
                <ele>54.932373</ele>
                <time>2006-09-24T06:07:17Z</time>
            </trkpt>
            <trkpt lon="101.549444" lat="12.771531">
                <ele>55.893799</ele>
                <time>2006-09-24T06:07:36Z</time>
            </trkpt>
            <trkpt lon="101.549072" lat="12.771727">
                <ele>55.893799</ele>
                <time>2006-09-24T06:07:53Z</time>
            </trkpt>
            <trkpt lon="101.548582" lat="12.771909">
                <ele>58.297119</ele>
                <time>2006-09-24T06:08:10Z</time>
            </trkpt>
            <trkpt lon="101.548506" lat="12.771912">
                <ele>58.297119</ele>
                <time>2006-09-24T06:08:12Z</time>
            </trkpt>
            <trkpt lon="101.548212" lat="12.771690">
                <ele>59.258423</ele>
                <time>2006-09-24T06:08:25Z</time>
            </trkpt>
            <trkpt lon="101.547830" lat="12.771426">
                <ele>60.700317</ele>
                <time>2006-09-24T06:08:42Z</time>
            </trkpt>
            <trkpt lon="101.547400" lat="12.771235">
                <ele>62.142334</ele>
                <time>2006-09-24T06:08:58Z</time>
            </trkpt>
            <trkpt lon="101.546922" lat="12.771032">
                <ele>65.026367</ele>
                <time>2006-09-24T06:09:17Z</time>
            </trkpt>
            <trkpt lon="101.546465" lat="12.770909">
                <ele>65.507080</ele>
                <time>2006-09-24T06:09:33Z</time>
            </trkpt>
            <trkpt lon="101.546431" lat="12.770899">
                <ele>65.507080</ele>
                <time>2006-09-24T06:09:34Z</time>
            </trkpt>
            <trkpt lon="101.546383" lat="12.770772">
                <ele>65.987671</ele>
                <time>2006-09-24T06:09:38Z</time>
            </trkpt>
            <trkpt lon="101.546436" lat="12.770536">
                <ele>63.584351</ele>
                <time>2006-09-24T06:09:44Z</time>
            </trkpt>
            <trkpt lon="101.546677" lat="12.770354">
                <ele>60.219727</ele>
                <time>2006-09-24T06:09:50Z</time>
            </trkpt>
            <trkpt lon="101.546843" lat="12.770386">
                <ele>59.258423</ele>
                <time>2006-09-24T06:09:54Z</time>
            </trkpt>
            <trkpt lon="101.546983" lat="12.770333">
                <ele>57.335815</ele>
                <time>2006-09-24T06:10:01Z</time>
            </trkpt>
            <trkpt lon="101.546985" lat="12.770261">
                <ele>56.374512</ele>
                <time>2006-09-24T06:10:04Z</time>
            </trkpt>
            <trkpt lon="101.546870" lat="12.770222">
                <ele>54.932373</ele>
                <time>2006-09-24T06:10:14Z</time>
            </trkpt>
            <trkpt lon="101.546878" lat="12.770232">
                <ele>53.971191</ele>
                <time>2006-09-24T06:10:32Z</time>
            </trkpt>
        </trkseg>
    </trk>
</gpx>